createdAt,value
2019-03-12T00:02:28.087Z,88.80
2019-03-12T00:05:02.681Z,87.30
2019-03-12T00:07:35.567Z,88.30
2019-03-12T00:10:08.867Z,87.60
2019-03-12T00:12:41.676Z,87.30
2019-03-12T00:15:15.087Z,88.00
2019-03-12T00:17:49.007Z,88.50
2019-03-12T00:20:22.067Z,88.30
2019-03-12T00:22:54.911Z,86.60
2019-03-12T00:25:28.497Z,87.80
2019-03-12T00:28:01.327Z,86.50
2019-03-12T00:30:34.227Z,85.50
2019-03-12T00:33:07.090Z,85.20
2019-03-12T00:35:40.609Z,85.00
2019-03-12T00:38:14.027Z,86.00
2019-03-12T00:40:47.007Z,85.10
2019-03-12T00:43:19.907Z,84.40
2019-03-12T00:45:52.768Z,83.50
2019-03-12T00:48:26.767Z,83.70
2019-03-12T00:50:59.650Z,84.70
2019-03-12T00:53:33.047Z,84.40
2019-03-12T00:56:06.148Z,84.40
2019-03-12T00:58:39.247Z,83.70
2019-03-12T01:01:12.428Z,83.20
2019-03-12T01:03:45.307Z,82.50
2019-03-12T01:06:18.407Z,82.00
2019-03-12T01:08:51.732Z,83.50
2019-03-12T01:11:25.076Z,82.40
2019-03-12T01:13:58.053Z,83.00
2019-03-12T01:16:31.193Z,82.00
2019-03-12T01:19:05.468Z,82.70
2019-03-12T01:21:38.316Z,81.90
2019-03-12T01:24:11.167Z,81.00
2019-03-12T01:26:44.307Z,82.50
2019-03-12T01:29:17.170Z,82.00
2019-03-12T01:31:49.948Z,82.10
2019-03-12T01:34:23.067Z,82.10
2019-03-12T01:36:56.547Z,81.50
2019-03-12T01:39:29.668Z,81.20
2019-03-12T01:42:02.447Z,81.30
2019-03-12T01:44:35.913Z,81.80
2019-03-12T01:47:08.929Z,82.50
2019-03-12T01:49:42.291Z,81.80
2019-03-12T01:52:15.347Z,80.90
2019-03-12T01:54:48.127Z,80.40
2019-03-12T01:57:21.647Z,80.40
2019-03-12T01:59:54.668Z,80.30
2019-03-12T02:02:27.927Z,79.30
2019-03-12T02:05:00.828Z,79.50
2019-03-12T02:07:34.047Z,79.50
2019-03-12T02:10:07.248Z,79.60
2019-03-12T02:12:40.447Z,79.60
2019-03-12T02:15:13.327Z,79.30
2019-03-12T02:17:46.367Z,79.60
2019-03-12T02:20:19.536Z,79.70
2019-03-12T02:22:52.527Z,81.40
2019-03-12T02:25:25.427Z,81.30
2019-03-12T02:27:58.687Z,81.70
2019-03-12T02:30:31.430Z,81.30
2019-03-12T02:33:04.333Z,83.00
2019-03-12T02:35:37.189Z,82.70
2019-03-12T02:38:10.010Z,82.10
2019-03-12T02:40:43.240Z,82.20
2019-03-12T02:43:16.252Z,81.80
2019-03-12T02:45:49.112Z,80.00
2019-03-12T02:48:21.949Z,79.50
2019-03-12T02:50:54.807Z,79.10
2019-03-12T02:53:27.692Z,79.60
2019-03-12T02:56:02.013Z,77.80
2019-03-12T02:58:35.168Z,78.10
2019-03-12T03:01:08.147Z,80.10
2019-03-12T03:03:41.039Z,79.30
2019-03-12T03:06:24.669Z,80.70
2019-03-12T03:08:57.628Z,81.60
2019-03-12T03:11:30.468Z,80.30
2019-03-12T03:14:03.787Z,81.20
2019-03-12T03:16:36.927Z,80.10
2019-03-12T03:19:10.109Z,81.90
2019-03-12T03:21:43.021Z,81.00
2019-03-12T03:24:15.949Z,79.60
2019-03-12T03:26:48.849Z,81.60
2019-03-12T03:29:21.890Z,81.90
2019-03-12T03:31:55.503Z,81.00
2019-03-12T03:34:29.189Z,80.90
2019-03-12T03:37:02.712Z,80.30
2019-03-12T03:39:35.609Z,80.30
2019-03-12T03:42:08.994Z,81.20
2019-03-12T03:44:41.927Z,81.60
2019-03-12T03:47:19.540Z,81.30
2019-03-12T03:49:50.330Z,81.10
2019-03-12T03:52:23.232Z,81.40
2019-03-12T03:54:57.928Z,82.20
2019-03-12T03:57:30.869Z,81.60
2019-03-12T04:00:03.729Z,81.70
2019-03-12T04:02:36.847Z,82.10
2019-03-12T04:05:09.747Z,81.10
2019-03-12T04:07:42.679Z,81.60
2019-03-12T04:10:15.551Z,82.00
2019-03-12T04:12:48.607Z,82.80
2019-03-12T04:15:22.007Z,83.30
2019-03-12T04:17:54.909Z,82.60
2019-03-12T04:20:28.152Z,83.30
2019-03-12T04:23:01.009Z,83.10
2019-03-12T04:25:33.873Z,83.70
2019-03-12T04:28:07.408Z,84.40
2019-03-12T04:30:40.689Z,85.00
2019-03-12T04:33:15.108Z,84.30
2019-03-12T04:35:47.968Z,85.00
2019-03-12T04:38:20.967Z,85.40
2019-03-12T04:40:54.367Z,84.60
2019-03-12T04:43:27.107Z,84.40
2019-03-12T04:46:00.030Z,84.50
2019-03-12T04:48:33.227Z,84.70
2019-03-12T04:51:06.607Z,84.10
2019-03-12T04:53:40.108Z,84.70
2019-03-12T04:56:13.047Z,85.20
2019-03-12T04:58:46.010Z,85.50
2019-03-12T05:01:19.111Z,85.70
2019-03-12T05:03:52.347Z,86.10
2019-03-12T05:06:25.428Z,86.20
2019-03-12T05:08:58.247Z,86.00
2019-03-12T05:11:31.071Z,85.60
2019-03-12T05:14:03.886Z,84.20
2019-03-12T05:16:36.777Z,84.20
2019-03-12T05:19:09.670Z,84.30
2019-03-12T05:21:44.906Z,84.50
2019-03-12T05:24:17.491Z,83.90
2019-03-12T05:26:50.310Z,84.00
2019-03-12T05:29:23.081Z,84.70
2019-03-12T05:31:56.026Z,84.00
2019-03-12T05:34:28.764Z,84.40
2019-03-12T05:37:01.603Z,84.90
2019-03-12T05:39:34.624Z,83.80
2019-03-12T05:42:07.443Z,84.30
2019-03-12T05:44:40.166Z,84.40
2019-03-12T05:47:12.975Z,83.50
2019-03-12T05:49:45.672Z,83.80
2019-03-12T05:52:21.563Z,84.90
2019-03-12T05:54:55.043Z,84.10
2019-03-12T05:57:27.884Z,84.20
2019-03-12T06:00:00.643Z,83.90
2019-03-12T06:02:33.924Z,85.80
2019-03-12T06:05:06.643Z,86.00
2019-03-12T06:07:39.487Z,87.20
2019-03-12T06:10:12.324Z,87.00
2019-03-12T06:12:45.125Z,86.60
2019-03-12T06:15:17.869Z,86.50
2019-03-12T06:17:50.727Z,85.90
2019-03-12T06:20:26.504Z,85.60
2019-03-12T06:22:59.503Z,85.40
2019-03-12T06:25:32.298Z,86.30
2019-03-12T06:28:05.165Z,84.70
2019-03-12T06:30:39.503Z,86.40
2019-03-12T06:33:13.884Z,85.00
2019-03-12T06:36:03.363Z,85.60
2019-03-12T06:38:38.144Z,84.60
2019-03-12T06:41:21.323Z,85.60
2019-03-12T06:43:55.723Z,85.30
2019-03-12T06:46:46.285Z,85.00
2019-03-12T06:49:23.483Z,84.10
2019-03-12T06:51:57.866Z,83.20
2019-03-12T06:54:32.763Z,83.60
2019-03-12T06:57:05.223Z,83.20
2019-03-12T06:59:39.563Z,82.70
2019-03-12T07:02:12.184Z,82.30
2019-03-12T07:04:55.784Z,80.70
2019-03-12T07:07:45.879Z,82.00
2019-03-12T07:10:20.844Z,80.70
2019-03-12T07:12:55.509Z,82.40
2019-03-12T07:15:30.244Z,80.80
2019-03-12T07:18:04.584Z,81.00
2019-03-12T07:20:41.948Z,80.10
2019-03-12T07:23:17.223Z,80.60
2019-03-12T07:25:55.795Z,79.50
2019-03-12T07:28:32.903Z,81.00
2019-03-12T07:31:12.153Z,81.50
2019-03-12T07:33:50.103Z,82.90
2019-03-12T07:36:26.267Z,81.50
2019-03-12T07:39:03.322Z,82.60
2019-03-12T07:41:37.863Z,77.00
2019-03-12T07:44:18.244Z,79.20
2019-03-12T07:46:55.665Z,79.90
2019-03-12T07:49:46.263Z,80.90
2019-03-12T07:52:18.751Z,73.20
2019-03-12T07:54:55.883Z,73.20
2019-03-12T07:57:33.304Z,71.10
2019-03-12T08:00:24.124Z,68.00
2019-03-12T08:03:01.543Z,69.50
2019-03-12T08:05:36.084Z,66.60
2019-03-12T08:08:13.524Z,67.50
2019-03-12T08:10:47.906Z,68.90
2019-03-12T08:13:22.304Z,70.50
2019-03-12T08:16:02.625Z,68.40
2019-03-12T08:18:35.722Z,66.10
2019-03-12T08:21:28.363Z,70.60
2019-03-12T08:24:13.729Z,70.70
2019-03-12T08:26:45.544Z,70.40
2019-03-12T08:29:28.883Z,69.50
2019-03-12T08:32:06.604Z,65.40
2019-03-12T08:34:39.263Z,66.20
2019-03-12T08:37:18.363Z,67.00
2019-03-12T08:40:04.805Z,64.90
2019-03-12T08:42:55.196Z,60.90
2019-03-12T08:45:28.221Z,63.80
2019-03-12T08:48:08.484Z,65.90
2019-03-12T08:50:51.804Z,64.60
2019-03-12T08:53:31.864Z,59.20
2019-03-12T08:56:06.203Z,56.70
2019-03-12T08:58:57.109Z,59.40
2019-03-12T09:01:31.385Z,58.10
2019-03-12T09:04:20.485Z,54.20
2019-03-12T09:07:10.985Z,55.40
2019-03-12T09:09:48.505Z,54.90
2019-03-12T09:12:22.947Z,55.70
2019-03-12T09:14:57.604Z,54.20
2019-03-12T09:17:41.183Z,54.10
2019-03-12T09:20:31.806Z,54.60
2019-03-12T09:23:22.284Z,56.00
2019-03-12T09:26:15.182Z,54.80
2019-03-12T09:28:52.804Z,54.30
2019-03-12T09:31:33.263Z,54.30
2019-03-12T09:34:18.184Z,55.20
2019-03-12T09:36:52.505Z,55.50
2019-03-12T09:39:42.764Z,54.20
2019-03-12T09:42:23.065Z,54.50
2019-03-12T09:45:06.883Z,53.60
2019-03-12T09:47:39.603Z,53.20
2019-03-12T09:50:12.543Z,54.60
2019-03-12T09:52:47.183Z,53.30
2019-03-12T09:55:24.823Z,52.80
2019-03-12T09:58:08.014Z,53.00
2019-03-12T10:00:40.603Z,53.20
2019-03-12T10:03:14.966Z,51.30
2019-03-12T10:05:52.666Z,49.90
2019-03-12T10:08:43.083Z,50.40
2019-03-12T10:11:33.883Z,50.80
2019-03-12T10:14:14.103Z,50.40
2019-03-12T10:16:58.763Z,50.10
2019-03-12T10:19:49.445Z,49.20
2019-03-12T10:22:27.886Z,50.40
2019-03-12T10:25:17.727Z,49.10
2019-03-12T10:27:52.487Z,50.00
2019-03-12T10:30:41.886Z,49.50
2019-03-12T10:33:32.692Z,48.80
2019-03-12T10:36:10.066Z,46.00
2019-03-12T10:39:03.108Z,47.80
2019-03-12T10:41:37.946Z,45.50
2019-03-12T10:44:15.128Z,46.40
2019-03-12T10:46:52.504Z,46.10
2019-03-12T10:49:36.889Z,45.20
2019-03-12T10:51:59.983Z,44.90
2019-03-12T10:54:32.684Z,42.00
2019-03-12T10:57:06.203Z,43.10
2019-03-12T10:59:39.165Z,41.60
2019-03-12T11:02:12.203Z,42.50
2019-03-12T11:04:44.964Z,42.70
2019-03-12T11:07:18.244Z,42.80
2019-03-12T11:09:51.188Z,43.20
2019-03-12T11:12:24.054Z,41.80
2019-03-12T11:14:57.944Z,44.30
2019-03-12T11:17:31.543Z,44.70
2019-03-12T11:20:04.432Z,44.60
2019-03-12T11:22:37.744Z,45.10
2019-03-12T11:25:10.544Z,45.60
2019-03-12T11:27:43.709Z,46.30
2019-03-12T11:30:16.644Z,45.10
2019-03-12T11:32:49.424Z,44.90
2019-03-12T11:35:22.844Z,44.90
2019-03-12T11:37:55.611Z,45.10
2019-03-12T11:40:32.066Z,43.70
2019-03-12T11:43:03.184Z,42.20
2019-03-12T11:45:37.714Z,43.40
2019-03-12T11:48:11.205Z,41.90
2019-03-12T11:50:44.673Z,42.10
2019-03-12T11:53:17.544Z,43.70
2019-03-12T11:55:50.844Z,44.60
2019-03-12T11:58:23.684Z,42.80
2019-03-12T12:00:58.230Z,43.70
2019-03-12T12:03:31.084Z,42.60
2019-03-12T12:06:04.205Z,42.90
2019-03-12T12:08:37.324Z,43.50
2019-03-12T12:11:10.164Z,41.50
2019-03-12T12:13:43.366Z,42.70
2019-03-12T12:16:16.126Z,42.70
2019-03-12T12:18:49.304Z,43.20
2019-03-12T12:21:22.565Z,43.20
2019-03-12T12:23:55.344Z,43.10
2019-03-12T12:26:28.204Z,40.90
2019-03-12T12:29:01.264Z,41.90
2019-03-12T12:31:34.144Z,40.30
2019-03-12T12:34:06.967Z,41.90
2019-03-12T12:36:39.965Z,41.10
2019-03-12T12:39:13.004Z,42.50
2019-03-12T12:41:46.443Z,42.30
2019-03-12T12:44:19.206Z,44.20
2019-03-12T12:46:52.786Z,42.50
2019-03-12T12:49:25.504Z,43.40
2019-03-12T12:51:58.407Z,41.80
2019-03-12T12:54:31.206Z,43.20
2019-03-12T12:57:04.083Z,42.40
2019-03-12T12:59:36.905Z,40.80
2019-03-12T13:02:09.644Z,40.90
2019-03-12T13:04:42.524Z,40.70
2019-03-12T13:07:15.263Z,40.50
2019-03-12T13:09:48.167Z,41.00
2019-03-12T13:12:21.324Z,41.60
2019-03-12T13:14:54.383Z,41.20
2019-03-12T13:17:27.283Z,40.00
2019-03-12T13:20:00.403Z,39.80
2019-03-12T13:22:33.217Z,40.40
2019-03-12T13:25:06.526Z,40.30
2019-03-12T13:27:42.619Z,40.40
2019-03-12T13:30:13.808Z,40.80
2019-03-12T13:32:46.688Z,40.60
2019-03-12T13:35:19.686Z,41.20
2019-03-12T13:37:52.443Z,41.50
2019-03-12T13:40:26.282Z,41.20
2019-03-12T13:42:59.892Z,42.40
2019-03-12T13:45:33.009Z,42.60
2019-03-12T13:48:06.301Z,41.30
2019-03-12T13:50:39.065Z,42.30
2019-03-12T13:53:11.997Z,42.00
2019-03-12T13:55:44.782Z,41.50
2019-03-12T13:58:17.844Z,41.90
2019-03-12T14:00:50.625Z,41.60
2019-03-12T14:03:23.843Z,39.10
2019-03-12T14:05:56.604Z,40.40
2019-03-12T14:08:29.463Z,40.30
2019-03-12T14:11:02.241Z,39.00
2019-03-12T14:13:35.623Z,38.60
2019-03-12T14:16:08.556Z,39.00
2019-03-12T14:18:41.483Z,38.60
2019-03-12T14:21:14.367Z,39.70
2019-03-12T14:23:47.563Z,39.80
2019-03-12T14:26:20.331Z,39.00
2019-03-12T14:28:53.203Z,41.60
2019-03-12T14:31:26.766Z,42.60
2019-03-12T14:33:59.484Z,42.50
2019-03-12T14:36:32.723Z,42.60
2019-03-12T14:39:05.885Z,40.90
2019-03-12T14:41:38.903Z,40.30
2019-03-12T14:44:11.845Z,41.20
2019-03-12T14:46:44.563Z,39.50
2019-03-12T14:49:17.425Z,40.10
2019-03-12T14:51:50.303Z,40.60
2019-03-12T14:54:25.963Z,41.70
2019-03-12T14:56:58.763Z,42.50
2019-03-12T14:59:31.653Z,39.80
2019-03-12T15:02:04.703Z,40.00
2019-03-12T15:04:38.043Z,43.80
2019-03-12T15:07:10.843Z,43.10
2019-03-12T15:09:44.323Z,42.00
2019-03-12T15:12:17.088Z,42.30
2019-03-12T15:14:50.467Z,39.00
2019-03-12T15:17:23.484Z,38.00
2019-03-12T15:19:56.384Z,39.10
2019-03-12T15:22:29.244Z,40.30
2019-03-12T15:25:02.788Z,42.30
2019-03-12T15:27:35.564Z,41.90
2019-03-12T15:30:08.763Z,43.70
2019-03-12T15:32:41.944Z,42.80
2019-03-12T15:35:14.903Z,42.70
2019-03-12T15:37:47.723Z,41.40
2019-03-12T15:40:20.623Z,41.60
2019-03-12T15:42:53.444Z,40.00
2019-03-12T15:45:26.545Z,39.10
2019-03-12T15:47:59.904Z,41.40
2019-03-12T15:50:34.622Z,43.00
2019-03-12T15:53:07.381Z,43.80
2019-03-12T15:55:40.904Z,43.40
2019-03-12T15:58:13.805Z,45.60
2019-03-12T16:00:46.684Z,46.60
2019-03-12T16:03:19.504Z,48.10
2019-03-12T16:05:52.783Z,47.80
2019-03-12T16:08:25.964Z,48.00
2019-03-12T16:10:59.163Z,48.90
2019-03-12T16:13:31.963Z,49.60
2019-03-12T16:16:05.184Z,47.00
2019-03-12T16:18:37.964Z,48.50
2019-03-12T16:21:11.545Z,49.90
2019-03-12T16:23:44.326Z,50.60
2019-03-12T16:26:17.544Z,51.90
2019-03-12T16:28:50.243Z,52.50
2019-03-12T16:31:23.164Z,50.60
2019-03-12T16:33:55.858Z,50.90
2019-03-12T16:36:28.813Z,52.10
2019-03-12T16:39:01.579Z,52.50
2019-03-12T16:41:34.543Z,53.40
2019-03-12T16:44:07.253Z,53.90
2019-03-12T16:46:39.981Z,54.40
2019-03-12T16:49:12.683Z,55.10
2019-03-12T16:51:47.863Z,56.10
2019-03-12T16:54:21.106Z,56.70
2019-03-12T16:56:53.944Z,56.50
2019-03-12T16:59:27.244Z,57.50
2019-03-12T17:02:00.152Z,58.80
2019-03-12T17:04:32.923Z,58.20
2019-03-12T17:07:05.923Z,57.40
2019-03-12T17:09:38.983Z,57.10
2019-03-12T17:12:12.243Z,57.10
2019-03-12T17:14:45.332Z,56.90
2019-03-12T17:17:18.107Z,57.60
2019-03-12T17:19:51.365Z,56.60
2019-03-12T17:22:24.144Z,57.10
2019-03-12T17:24:57.024Z,57.00
2019-03-12T17:27:30.430Z,56.80
2019-03-12T17:30:03.117Z,56.60
2019-03-12T17:32:36.124Z,56.10
2019-03-12T17:35:08.810Z,56.50
2019-03-12T17:37:41.715Z,56.40
2019-03-12T17:40:14.467Z,57.20
2019-03-12T17:42:47.707Z,57.00
2019-03-12T17:45:20.526Z,57.70
2019-03-12T17:47:53.628Z,57.90
2019-03-12T17:50:26.586Z,58.10
2019-03-12T17:52:59.415Z,58.00
2019-03-12T17:55:32.506Z,59.40
2019-03-12T17:58:05.298Z,59.30
2019-03-12T18:00:39.811Z,58.20
2019-03-12T18:03:12.555Z,58.60
2019-03-12T18:05:45.489Z,58.60
2019-03-12T18:08:18.306Z,58.20
2019-03-12T18:10:51.074Z,57.80
2019-03-12T18:13:24.459Z,58.80
2019-03-12T18:15:57.347Z,58.60
2019-03-12T18:18:30.527Z,59.40
2019-03-12T18:21:03.607Z,59.40
2019-03-12T18:23:36.547Z,59.80
2019-03-12T18:26:09.297Z,59.30
2019-03-12T18:28:42.127Z,59.50
2019-03-12T18:31:15.694Z,59.60
2019-03-12T18:33:48.506Z,59.10
2019-03-12T18:36:22.248Z,57.80
2019-03-12T18:38:55.097Z,58.00
2019-03-12T18:41:28.128Z,57.70
2019-03-12T18:44:00.980Z,57.90
2019-03-12T18:46:33.706Z,58.50
2019-03-12T18:49:06.666Z,59.60
2019-03-12T18:51:39.956Z,58.60
2019-03-12T18:54:13.516Z,58.10
2019-03-12T18:56:46.228Z,57.80
2019-03-12T18:59:19.106Z,57.40
2019-03-12T19:01:52.356Z,58.60
2019-03-12T19:04:25.116Z,59.60
2019-03-12T19:06:57.916Z,60.00
2019-03-12T19:09:31.476Z,60.80
2019-03-12T19:12:04.525Z,60.70
2019-03-12T19:14:37.321Z,60.70
2019-03-12T19:17:10.145Z,60.70
2019-03-12T19:19:43.006Z,61.60
2019-03-12T19:22:16.185Z,62.70
2019-03-12T19:24:49.108Z,64.30
2019-03-12T19:27:22.261Z,64.70
2019-03-12T19:29:55.525Z,64.60
2019-03-12T19:32:32.846Z,63.40
2019-03-12T19:35:06.007Z,61.90
2019-03-12T19:37:38.711Z,60.10
2019-03-12T19:40:11.443Z,60.50
2019-03-12T19:42:44.236Z,59.60
2019-03-12T19:45:17.255Z,59.80
2019-03-12T19:47:50.063Z,59.50
2019-03-12T19:50:23.394Z,60.00
2019-03-12T19:52:56.328Z,60.10
2019-03-12T19:55:29.145Z,60.70
2019-03-12T19:58:01.927Z,61.30
2019-03-12T20:00:34.897Z,61.70
2019-03-12T20:03:13.320Z,62.10
2019-03-12T20:05:42.505Z,61.80
2019-03-12T20:08:15.323Z,63.70
2019-03-12T20:10:48.283Z,64.60
2019-03-12T20:13:21.004Z,65.50
2019-03-12T20:15:53.923Z,65.50
2019-03-12T20:18:26.783Z,65.30
2019-03-12T20:20:59.963Z,64.60
2019-03-12T20:23:33.624Z,64.90
2019-03-12T20:26:06.763Z,65.70
2019-03-12T20:28:40.047Z,66.10
2019-03-12T20:31:12.944Z,65.80
2019-03-12T20:33:45.785Z,67.90
2019-03-12T20:36:18.623Z,67.60
2019-03-12T20:38:53.895Z,68.00
2019-03-12T20:41:26.875Z,68.00
2019-03-12T20:44:00.083Z,68.60
2019-03-12T20:46:32.931Z,68.80
2019-03-12T20:49:11.000Z,71.50
2019-03-12T20:51:40.443Z,72.60
2019-03-12T20:54:13.407Z,74.50
2019-03-12T20:56:46.383Z,76.20
2019-03-12T20:59:19.374Z,75.80
2019-03-12T21:01:52.344Z,76.10
2019-03-12T21:04:25.245Z,76.70
2019-03-12T21:06:58.066Z,77.60
2019-03-12T21:09:30.936Z,78.20
2019-03-12T21:12:03.690Z,78.30
2019-03-12T21:14:36.538Z,78.60
2019-03-12T21:17:09.557Z,77.70
2019-03-12T21:19:42.846Z,76.40
2019-03-12T21:22:16.034Z,75.10
2019-03-12T21:24:49.001Z,73.90
2019-03-12T21:27:22.225Z,75.00
2019-03-12T21:29:57.038Z,77.10
2019-03-12T21:32:30.365Z,77.80
2019-03-12T21:35:03.145Z,76.60
2019-03-12T21:37:36.765Z,76.70
2019-03-12T21:40:10.006Z,76.10
2019-03-12T21:42:42.952Z,76.80
2019-03-12T21:45:16.184Z,75.90
2019-03-12T21:47:49.123Z,75.60
2019-03-12T21:50:24.215Z,75.60
2019-03-12T21:52:57.244Z,76.70
2019-03-12T21:55:30.046Z,75.30
2019-03-12T21:58:03.144Z,76.20
2019-03-12T22:00:36.123Z,77.60
2019-03-12T22:03:08.944Z,78.20
2019-03-12T22:05:42.263Z,78.30
2019-03-12T22:08:16.004Z,78.70
2019-03-12T22:10:49.103Z,78.60
2019-03-12T22:13:22.783Z,79.50
2019-03-12T22:15:56.163Z,80.00
2019-03-12T22:18:29.123Z,80.20
2019-03-12T22:21:01.935Z,77.90
2019-03-12T22:23:39.283Z,74.00
2019-03-12T22:26:12.123Z,73.20
2019-03-12T22:28:45.062Z,73.00
2019-03-12T22:31:19.384Z,74.60
2019-03-12T22:33:52.383Z,77.40
2019-03-12T22:36:25.243Z,80.00
2019-03-12T22:38:58.064Z,80.10
2019-03-12T22:41:30.903Z,80.40
2019-03-12T22:44:03.643Z,80.70
2019-03-12T22:46:36.505Z,80.70
2019-03-12T22:49:09.323Z,79.70
2019-03-12T22:51:42.723Z,80.30
2019-03-12T22:54:15.723Z,78.00
2019-03-12T22:56:48.683Z,76.10
2019-03-12T22:59:22.066Z,74.80
2019-03-12T23:01:54.883Z,74.20
2019-03-12T23:04:28.143Z,73.70
2019-03-12T23:07:01.204Z,73.90
2019-03-12T23:09:34.166Z,73.20
2019-03-12T23:12:07.183Z,76.50
2019-03-12T23:14:40.144Z,77.30
2019-03-12T23:17:12.971Z,76.70
2019-03-12T23:19:45.923Z,77.50
2019-03-12T23:22:18.783Z,78.30
2019-03-12T23:24:51.643Z,78.20
2019-03-12T23:27:25.383Z,77.90
2019-03-12T23:29:58.123Z,77.60
2019-03-12T23:32:31.383Z,80.10
2019-03-12T23:35:04.165Z,80.80
2019-03-12T23:37:37.283Z,80.50
2019-03-12T23:40:10.051Z,80.50
2019-03-12T23:42:42.866Z,80.10
2019-03-12T23:45:15.803Z,80.90
2019-03-12T23:47:50.294Z,80.20
2019-03-12T23:50:23.083Z,80.10
2019-03-12T23:52:56.443Z,78.80
2019-03-12T23:55:29.867Z,77.10
2019-03-12T23:58:02.478Z,77.60
